sensor_id;sensor_type;location;lat;lon;timestamp;P1;durP1;ratioP1;P2;durP2;ratioP2
20637;SDS011;10478;49.004;8.470;2022-10-19T00:02:21;16.42;;;7.95;;
20637;SDS011;10478;49.004;8.470;2022-10-19T00:04:46;19.45;;;7.90;;
20637;SDS011;10478;49.004;8.470;2022-10-19T00:07:11;12.93;;;7.55;;
20637;SDS011;10478;49.004;8.470;2022-10-19T00:09:37;19.27;;;8.52;;
20637;SDS011;10478;49.004;8.470;2022-10-19T00:12:02;10.75;;;6.18;;
20637;SDS011;10478;49.004;8.470;2022-10-19T00:14:28;11.07;;;7.25;;
20637;SDS011;10478;49.004;8.470;2022-10-19T00:16:53;15.80;;;6.88;;
20637;SDS011;10478;49.004;8.470;2022-10-19T00:19:23;11.70;;;6.85;;
20637;SDS011;10478;49.004;8.470;2022-10-19T00:21:50;12.85;;;6.85;;
20637;SDS011;10478;49.004;8.470;2022-10-19T00:24:16;7.85;;;5.85;;
20637;SDS011;10478;49.004;8.470;2022-10-19T00:26:41;12.63;;;5.88;;
20637;SDS011;10478;49.004;8.470;2022-10-19T00:29:07;11.07;;;6.68;;
20637;SDS011;10478;49.004;8.470;2022-10-19T00:31:33;11.55;;;6.90;;
20637;SDS011;10478;49.004;8.470;2022-10-19T00:33:58;10.57;;;6.68;;
20637;SDS011;10478;49.004;8.470;2022-10-19T00:36:25;10.85;;;7.07;;
20637;SDS011;10478;49.004;8.470;2022-10-19T00:38:54;13.27;;;7.80;;
20637;SDS011;10478;49.004;8.470;2022-10-19T00:41:21;11.18;;;7.03;;
20637;SDS011;10478;49.004;8.470;2022-10-19T00:43:59;32.95;;;8.32;;
20637;SDS011;10478;49.004;8.470;2022-10-19T00:46:33;33.35;;;8.07;;
20637;SDS011;10478;49.004;8.470;2022-10-19T00:49:07;17.38;;;7.57;;
20637;SDS011;10478;49.004;8.470;2022-10-19T00:51:33;13.35;;;7.57;;
20637;SDS011;10478;49.004;8.470;2022-10-19T00:54:01;11.30;;;6.97;;
20637;SDS011;10478;49.004;8.470;2022-10-19T00:56:28;11.10;;;6.63;;
20637;SDS011;10478;49.004;8.470;2022-10-19T00:58:53;10.20;;;5.85;;
20637;SDS011;10478;49.004;8.470;2022-10-19T01:01:19;8.68;;;5.47;;
20637;SDS011;10478;49.004;8.470;2022-10-19T01:03:46;8.82;;;5.70;;
20637;SDS011;10478;49.004;8.470;2022-10-19T01:06:12;9.20;;;6.00;;
20637;SDS011;10478;49.004;8.470;2022-10-19T01:08:38;14.07;;;6.35;;
20637;SDS011;10478;49.004;8.470;2022-10-19T01:20:10;11.05;;;6.45;;
20637;SDS011;10478;49.004;8.470;2022-10-19T01:37:00;10.98;;;6.55;;
20637;SDS011;10478;49.004;8.470;2022-10-19T01:46:55;11.48;;;6.47;;
20637;SDS011;10478;49.004;8.470;2022-10-19T01:49:34;10.27;;;6.10;;
20637;SDS011;10478;49.004;8.470;2022-10-19T01:52:05;10.65;;;6.07;;
20637;SDS011;10478;49.004;8.470;2022-10-19T01:54:35;10.20;;;6.60;;
20637;SDS011;10478;49.004;8.470;2022-10-19T01:57:06;8.95;;;5.35;;
20637;SDS011;10478;49.004;8.470;2022-10-19T01:59:33;9.10;;;5.68;;
20637;SDS011;10478;49.004;8.470;2022-10-19T02:02:00;12.38;;;6.10;;
20637;SDS011;10478;49.004;8.470;2022-10-19T02:04:27;10.30;;;6.70;;
20637;SDS011;10478;49.004;8.470;2022-10-19T02:06:53;7.90;;;5.53;;
20637;SDS011;10478;49.004;8.470;2022-10-19T02:09:19;11.98;;;6.93;;
20637;SDS011;10478;49.004;8.470;2022-10-19T02:11:48;12.18;;;7.03;;
20637;SDS011;10478;49.004;8.470;2022-10-19T02:14:18;14.38;;;8.00;;
20637;SDS011;10478;49.004;8.470;2022-10-19T02:16:46;14.55;;;7.72;;
20637;SDS011;10478;49.004;8.470;2022-10-19T02:19:17;11.55;;;7.05;;
20637;SDS011;10478;49.004;8.470;2022-10-19T02:21:44;11.65;;;7.75;;
20637;SDS011;10478;49.004;8.470;2022-10-19T02:24:09;14.98;;;7.22;;
20637;SDS011;10478;49.004;8.470;2022-10-19T02:26:35;15.38;;;7.57;;
20637;SDS011;10478;49.004;8.470;2022-10-19T02:29:00;13.45;;;8.48;;
20637;SDS011;10478;49.004;8.470;2022-10-19T02:31:26;14.88;;;8.93;;
20637;SDS011;10478;49.004;8.470;2022-10-19T02:33:51;16.10;;;8.50;;
20637;SDS011;10478;49.004;8.470;2022-10-19T02:36:17;20.02;;;10.38;;
20637;SDS011;10478;49.004;8.470;2022-10-19T02:38:42;19.65;;;9.23;;
20637;SDS011;10478;49.004;8.470;2022-10-19T02:41:15;21.50;;;9.77;;
20637;SDS011;10478;49.004;8.470;2022-10-19T02:43:44;18.08;;;8.85;;
20637;SDS011;10478;49.004;8.470;2022-10-19T02:46:14;18.02;;;9.25;;
20637;SDS011;10478;49.004;8.470;2022-10-19T02:48:43;17.58;;;9.55;;
20637;SDS011;10478;49.004;8.470;2022-10-19T02:54:03;23.45;;;9.05;;
20637;SDS011;10478;49.004;8.470;2022-10-19T02:56:30;22.88;;;11.05;;
20637;SDS011;10478;49.004;8.470;2022-10-19T02:58:56;25.13;;;10.73;;
20637;SDS011;10478;49.004;8.470;2022-10-19T03:01:22;19.60;;;8.88;;
20637;SDS011;10478;49.004;8.470;2022-10-19T03:03:47;17.27;;;9.27;;
20637;SDS011;10478;49.004;8.470;2022-10-19T03:06:12;16.75;;;9.45;;
20637;SDS011;10478;49.004;8.470;2022-10-19T03:08:38;18.90;;;9.75;;
20637;SDS011;10478;49.004;8.470;2022-10-19T03:11:03;18.40;;;8.63;;
20637;SDS011;10478;49.004;8.470;2022-10-19T03:13:28;26.25;;;10.38;;
20637;SDS011;10478;49.004;8.470;2022-10-19T03:15:54;19.02;;;8.93;;
20637;SDS011;10478;49.004;8.470;2022-10-19T03:18:19;24.40;;;9.85;;
20637;SDS011;10478;49.004;8.470;2022-10-19T03:20:44;21.92;;;9.80;;
20637;SDS011;10478;49.004;8.470;2022-10-19T03:23:10;22.20;;;9.80;;
20637;SDS011;10478;49.004;8.470;2022-10-19T03:25:35;20.88;;;10.05;;
20637;SDS011;10478;49.004;8.470;2022-10-19T03:28:00;17.27;;;10.07;;
20637;SDS011;10478;49.004;8.470;2022-10-19T03:30:26;19.58;;;9.30;;
20637;SDS011;10478;49.004;8.470;2022-10-19T03:32:51;23.80;;;10.05;;
20637;SDS011;10478;49.004;8.470;2022-10-19T03:35:16;19.50;;;9.75;;
20637;SDS011;10478;49.004;8.470;2022-10-19T03:37:42;15.63;;;8.98;;
20637;SDS011;10478;49.004;8.470;2022-10-19T03:40:07;20.75;;;9.30;;
20637;SDS011;10478;49.004;8.470;2022-10-19T03:42:33;17.25;;;10.15;;
20637;SDS011;10478;49.004;8.470;2022-10-19T03:44:58;16.00;;;8.18;;
20637;SDS011;10478;49.004;8.470;2022-10-19T03:47:23;19.85;;;11.05;;
20637;SDS011;10478;49.004;8.470;2022-10-19T03:49:49;18.38;;;8.55;;
20637;SDS011;10478;49.004;8.470;2022-10-19T03:52:15;18.83;;;8.75;;
20637;SDS011;10478;49.004;8.470;2022-10-19T03:54:41;17.95;;;9.57;;
20637;SDS011;10478;49.004;8.470;2022-10-19T03:57:06;18.80;;;9.32;;
20637;SDS011;10478;49.004;8.470;2022-10-19T03:59:32;16.73;;;9.40;;
20637;SDS011;10478;49.004;8.470;2022-10-19T04:01:57;19.45;;;10.23;;
20637;SDS011;10478;49.004;8.470;2022-10-19T04:04:22;16.75;;;9.23;;
20637;SDS011;10478;49.004;8.470;2022-10-19T04:06:48;20.83;;;9.48;;
20637;SDS011;10478;49.004;8.470;2022-10-19T04:09:15;18.90;;;8.68;;
20637;SDS011;10478;49.004;8.470;2022-10-19T04:11:42;20.85;;;9.23;;
20637;SDS011;10478;49.004;8.470;2022-10-19T04:14:08;17.45;;;9.73;;
20637;SDS011;10478;49.004;8.470;2022-10-19T04:16:34;14.65;;;7.75;;
20637;SDS011;10478;49.004;8.470;2022-10-19T04:19:00;17.08;;;9.13;;
20637;SDS011;10478;49.004;8.470;2022-10-19T04:21:26;17.30;;;9.25;;
20637;SDS011;10478;49.004;8.470;2022-10-19T04:24:12;18.92;;;10.00;;
20637;SDS011;10478;49.004;8.470;2022-10-19T04:26:39;22.83;;;11.23;;
20637;SDS011;10478;49.004;8.470;2022-10-19T04:29:06;17.77;;;9.20;;
20637;SDS011;10478;49.004;8.470;2022-10-19T04:31:31;22.38;;;9.05;;
20637;SDS011;10478;49.004;8.470;2022-10-19T04:33:57;14.48;;;8.57;;
20637;SDS011;10478;49.004;8.470;2022-10-19T04:36:22;18.60;;;10.05;;
20637;SDS011;10478;49.004;8.470;2022-10-19T04:38:48;22.98;;;11.02;;
20637;SDS011;10478;49.004;8.470;2022-10-19T04:41:14;21.08;;;9.77;;
20637;SDS011;10478;49.004;8.470;2022-10-19T04:43:41;21.02;;;9.35;;
20637;SDS011;10478;49.004;8.470;2022-10-19T04:46:10;20.65;;;8.93;;
20637;SDS011;10478;49.004;8.470;2022-10-19T04:48:38;16.08;;;9.10;;
20637;SDS011;10478;49.004;8.470;2022-10-19T04:51:04;17.00;;;9.73;;
20637;SDS011;10478;49.004;8.470;2022-10-19T04:53:29;25.25;;;10.15;;
20637;SDS011;10478;49.004;8.470;2022-10-19T04:55:55;20.88;;;11.05;;
20637;SDS011;10478;49.004;8.470;2022-10-19T04:58:20;24.30;;;10.70;;
20637;SDS011;10478;49.004;8.470;2022-10-19T05:00:46;19.02;;;10.00;;
20637;SDS011;10478;49.004;8.470;2022-10-19T05:03:11;18.23;;;9.57;;
20637;SDS011;10478;49.004;8.470;2022-10-19T05:05:36;24.15;;;10.55;;
20637;SDS011;10478;49.004;8.470;2022-10-19T05:08:02;20.73;;;10.15;;
20637;SDS011;10478;49.004;8.470;2022-10-19T05:10:27;17.77;;;9.77;;
20637;SDS011;10478;49.004;8.470;2022-10-19T05:12:53;18.10;;;9.27;;
20637;SDS011;10478;49.004;8.470;2022-10-19T05:15:18;22.63;;;10.90;;
20637;SDS011;10478;49.004;8.470;2022-10-19T05:17:44;22.17;;;9.73;;
20637;SDS011;10478;49.004;8.470;2022-10-19T05:20:09;23.80;;;12.52;;
20637;SDS011;10478;49.004;8.470;2022-10-19T05:22:37;21.15;;;9.93;;
20637;SDS011;10478;49.004;8.470;2022-10-19T05:25:03;23.40;;;10.32;;
20637;SDS011;10478;49.004;8.470;2022-10-19T05:27:29;21.25;;;9.57;;
20637;SDS011;10478;49.004;8.470;2022-10-19T05:29:55;19.02;;;9.50;;
20637;SDS011;10478;49.004;8.470;2022-10-19T05:32:20;20.75;;;9.75;;
20637;SDS011;10478;49.004;8.470;2022-10-19T05:34:45;16.33;;;8.50;;
20637;SDS011;10478;49.004;8.470;2022-10-19T05:37:11;15.93;;;8.77;;
20637;SDS011;10478;49.004;8.470;2022-10-19T05:39:36;16.73;;;9.90;;
20637;SDS011;10478;49.004;8.470;2022-10-19T05:42:01;18.98;;;9.52;;
20637;SDS011;10478;49.004;8.470;2022-10-19T05:44:27;15.02;;;8.15;;
20637;SDS011;10478;49.004;8.470;2022-10-19T05:46:52;16.52;;;8.10;;
20637;SDS011;10478;49.004;8.470;2022-10-19T05:49:18;21.15;;;8.57;;
20637;SDS011;10478;49.004;8.470;2022-10-19T05:51:45;19.90;;;9.10;;
20637;SDS011;10478;49.004;8.470;2022-10-19T05:54:11;14.00;;;7.88;;
20637;SDS011;10478;49.004;8.470;2022-10-19T05:56:36;17.55;;;9.20;;
20637;SDS011;10478;49.004;8.470;2022-10-19T05:59:02;20.35;;;10.25;;
20637;SDS011;10478;49.004;8.470;2022-10-19T06:01:29;24.38;;;11.02;;
20637;SDS011;10478;49.004;8.470;2022-10-19T06:03:56;24.52;;;10.73;;
20637;SDS011;10478;49.004;8.470;2022-10-19T06:06:22;20.30;;;9.93;;
20637;SDS011;10478;49.004;8.470;2022-10-19T06:08:48;20.02;;;10.90;;
20637;SDS011;10478;49.004;8.470;2022-10-19T06:11:15;18.15;;;9.60;;
20637;SDS011;10478;49.004;8.470;2022-10-19T06:13:41;17.58;;;8.75;;
20637;SDS011;10478;49.004;8.470;2022-10-19T06:16:08;19.52;;;10.30;;
20637;SDS011;10478;49.004;8.470;2022-10-19T06:18:35;17.52;;;9.95;;
20637;SDS011;10478;49.004;8.470;2022-10-19T06:21:01;18.92;;;11.05;;
20637;SDS011;10478;49.004;8.470;2022-10-19T06:23:28;17.88;;;9.38;;
20637;SDS011;10478;49.004;8.470;2022-10-19T06:25:54;18.63;;;9.30;;
20637;SDS011;10478;49.004;8.470;2022-10-19T06:28:19;19.92;;;9.60;;
20637;SDS011;10478;49.004;8.470;2022-10-19T06:30:45;22.98;;;11.52;;
20637;SDS011;10478;49.004;8.470;2022-10-19T06:33:10;19.58;;;10.30;;
20637;SDS011;10478;49.004;8.470;2022-10-19T06:35:35;20.08;;;10.30;;
20637;SDS011;10478;49.004;8.470;2022-10-19T06:38:02;19.23;;;9.68;;
20637;SDS011;10478;49.004;8.470;2022-10-19T06:40:27;16.83;;;8.40;;
20637;SDS011;10478;49.004;8.470;2022-10-19T06:42:53;18.77;;;10.23;;
20637;SDS011;10478;49.004;8.470;2022-10-19T06:45:19;20.95;;;9.70;;
20637;SDS011;10478;49.004;8.470;2022-10-19T06:47:44;20.52;;;9.57;;
20637;SDS011;10478;49.004;8.470;2022-10-19T06:50:10;21.58;;;10.55;;
20637;SDS011;10478;49.004;8.470;2022-10-19T06:52:35;20.10;;;9.77;;
20637;SDS011;10478;49.004;8.470;2022-10-19T06:55:01;17.98;;;8.95;;
20637;SDS011;10478;49.004;8.470;2022-10-19T06:57:26;28.38;;;12.82;;
20637;SDS011;10478;49.004;8.470;2022-10-19T06:59:52;20.77;;;10.45;;
20637;SDS011;10478;49.004;8.470;2022-10-19T07:02:18;21.00;;;9.00;;
20637;SDS011;10478;49.004;8.470;2022-10-19T07:04:43;19.48;;;9.48;;
20637;SDS011;10478;49.004;8.470;2022-10-19T07:07:08;21.40;;;8.70;;
20637;SDS011;10478;49.004;8.470;2022-10-19T07:09:34;19.83;;;8.27;;
20637;SDS011;10478;49.004;8.470;2022-10-19T07:11:59;23.58;;;9.50;;
20637;SDS011;10478;49.004;8.470;2022-10-19T07:14:24;19.42;;;8.93;;
20637;SDS011;10478;49.004;8.470;2022-10-19T07:16:52;18.45;;;8.43;;
20637;SDS011;10478;49.004;8.470;2022-10-19T07:19:18;20.27;;;9.40;;
20637;SDS011;10478;49.004;8.470;2022-10-19T07:21:43;18.80;;;9.15;;
20637;SDS011;10478;49.004;8.470;2022-10-19T07:24:09;24.73;;;9.95;;
20637;SDS011;10478;49.004;8.470;2022-10-19T07:26:34;15.40;;;7.97;;
20637;SDS011;10478;49.004;8.470;2022-10-19T07:29:00;16.55;;;9.05;;
20637;SDS011;10478;49.004;8.470;2022-10-19T07:31:27;20.98;;;9.88;;
20637;SDS011;10478;49.004;8.470;2022-10-19T07:33:53;18.75;;;9.02;;
20637;SDS011;10478;49.004;8.470;2022-10-19T07:36:19;19.10;;;9.10;;
20637;SDS011;10478;49.004;8.470;2022-10-19T07:38:45;20.25;;;8.88;;
20637;SDS011;10478;49.004;8.470;2022-10-19T07:41:11;17.17;;;9.05;;
20637;SDS011;10478;49.004;8.470;2022-10-19T07:43:38;21.27;;;8.57;;
20637;SDS011;10478;49.004;8.470;2022-10-19T07:46:05;16.60;;;8.50;;
20637;SDS011;10478;49.004;8.470;2022-10-19T07:48:32;15.57;;;8.43;;
20637;SDS011;10478;49.004;8.470;2022-10-19T07:50:59;20.15;;;8.65;;
20637;SDS011;10478;49.004;8.470;2022-10-19T07:53:26;18.20;;;8.23;;
20637;SDS011;10478;49.004;8.470;2022-10-19T07:55:51;20.42;;;8.52;;
20637;SDS011;10478;49.004;8.470;2022-10-19T07:58:16;15.70;;;8.15;;
20637;SDS011;10478;49.004;8.470;2022-10-19T08:00:42;18.90;;;9.25;;
20637;SDS011;10478;49.004;8.470;2022-10-19T08:03:07;16.27;;;8.88;;
20637;SDS011;10478;49.004;8.470;2022-10-19T08:05:32;18.35;;;8.60;;
20637;SDS011;10478;49.004;8.470;2022-10-19T08:07:58;18.95;;;10.85;;
20637;SDS011;10478;49.004;8.470;2022-10-19T08:10:23;19.50;;;9.85;;
20637;SDS011;10478;49.004;8.470;2022-10-19T08:12:49;19.02;;;10.68;;
20637;SDS011;10478;49.004;8.470;2022-10-19T08:15:14;22.58;;;10.52;;
20637;SDS011;10478;49.004;8.470;2022-10-19T08:17:39;23.60;;;9.80;;
20637;SDS011;10478;49.004;8.470;2022-10-19T08:20:05;19.30;;;8.75;;
20637;SDS011;10478;49.004;8.470;2022-10-19T08:22:31;17.85;;;8.73;;
20637;SDS011;10478;49.004;8.470;2022-10-19T08:24:57;16.52;;;8.77;;
20637;SDS011;10478;49.004;8.470;2022-10-19T08:27:22;18.13;;;9.13;;
20637;SDS011;10478;49.004;8.470;2022-10-19T08:29:47;14.93;;;8.85;;
20637;SDS011;10478;49.004;8.470;2022-10-19T08:32:13;17.50;;;8.82;;
20637;SDS011;10478;49.004;8.470;2022-10-19T08:34:38;16.35;;;9.30;;
20637;SDS011;10478;49.004;8.470;2022-10-19T08:37:04;19.02;;;9.40;;
20637;SDS011;10478;49.004;8.470;2022-10-19T08:39:29;16.10;;;8.65;;
20637;SDS011;10478;49.004;8.470;2022-10-19T08:41:59;17.67;;;9.50;;
20637;SDS011;10478;49.004;8.470;2022-10-19T08:49:46;19.52;;;9.02;;
20637;SDS011;10478;49.004;8.470;2022-10-19T08:52:17;14.38;;;7.40;;
20637;SDS011;10478;49.004;8.470;2022-10-19T08:54:57;17.17;;;8.27;;
20637;SDS011;10478;49.004;8.470;2022-10-19T08:59:58;15.65;;;9.13;;
20637;SDS011;10478;49.004;8.470;2022-10-19T09:05:10;14.13;;;7.82;;
20637;SDS011;10478;49.004;8.470;2022-10-19T09:07:45;17.48;;;8.15;;
20637;SDS011;10478;49.004;8.470;2022-10-19T09:12:46;13.93;;;8.27;;
20637;SDS011;10478;49.004;8.470;2022-10-19T09:15:18;16.13;;;9.00;;
20637;SDS011;10478;49.004;8.470;2022-10-19T09:17:45;18.33;;;9.85;;
20637;SDS011;10478;49.004;8.470;2022-10-19T09:22:39;18.10;;;9.90;;
20637;SDS011;10478;49.004;8.470;2022-10-19T09:25:13;13.98;;;8.18;;
20637;SDS011;10478;49.004;8.470;2022-10-19T09:27:43;15.57;;;8.32;;
20637;SDS011;10478;49.004;8.470;2022-10-19T09:32:46;19.65;;;8.80;;
20637;SDS011;10478;49.004;8.470;2022-10-19T09:37:47;16.00;;;8.98;;
20637;SDS011;10478;49.004;8.470;2022-10-19T09:40:15;19.40;;;9.85;;
20637;SDS011;10478;49.004;8.470;2022-10-19T09:42:43;18.73;;;9.05;;
20637;SDS011;10478;49.004;8.470;2022-10-19T09:45:19;14.15;;;8.57;;
20637;SDS011;10478;49.004;8.470;2022-10-19T09:47:51;20.38;;;10.02;;
20637;SDS011;10478;49.004;8.470;2022-10-19T09:50:24;18.15;;;9.95;;
20637;SDS011;10478;49.004;8.470;2022-10-19T09:52:51;20.38;;;8.50;;
20637;SDS011;10478;49.004;8.470;2022-10-19T09:58:14;16.52;;;8.18;;
20637;SDS011;10478;49.004;8.470;2022-10-19T10:03:26;17.17;;;8.57;;
20637;SDS011;10478;49.004;8.470;2022-10-19T10:05:51;15.32;;;8.13;;
20637;SDS011;10478;49.004;8.470;2022-10-19T10:08:22;13.68;;;7.75;;
20637;SDS011;10478;49.004;8.470;2022-10-19T10:13:34;16.83;;;9.40;;
20637;SDS011;10478;49.004;8.470;2022-10-19T10:16:02;17.63;;;8.30;;
20637;SDS011;10478;49.004;8.470;2022-10-19T10:18:28;13.63;;;8.10;;
20637;SDS011;10478;49.004;8.470;2022-10-19T10:21:01;12.30;;;7.45;;
20637;SDS011;10478;49.004;8.470;2022-10-19T10:23:30;13.35;;;7.35;;
20637;SDS011;10478;49.004;8.470;2022-10-19T10:26:01;14.50;;;7.80;;
20637;SDS011;10478;49.004;8.470;2022-10-19T10:28:27;13.52;;;7.53;;
20637;SDS011;10478;49.004;8.470;2022-10-19T10:31:06;12.52;;;7.30;;
20637;SDS011;10478;49.004;8.470;2022-10-19T10:33:33;16.60;;;9.18;;
20637;SDS011;10478;49.004;8.470;2022-10-19T10:36:01;11.88;;;7.30;;
20637;SDS011;10478;49.004;8.470;2022-10-19T10:38:31;17.20;;;8.05;;
20637;SDS011;10478;49.004;8.470;2022-10-19T10:41:02;14.57;;;7.97;;
20637;SDS011;10478;49.004;8.470;2022-10-19T10:43:33;10.13;;;6.85;;
20637;SDS011;10478;49.004;8.470;2022-10-19T10:46:00;10.40;;;6.45;;
20637;SDS011;10478;49.004;8.470;2022-10-19T10:48:29;10.60;;;7.13;;
20637;SDS011;10478;49.004;8.470;2022-10-19T10:51:02;10.80;;;6.25;;
20637;SDS011;10478;49.004;8.470;2022-10-19T10:53:36;9.70;;;6.60;;
20637;SDS011;10478;49.004;8.470;2022-10-19T10:56:04;12.23;;;6.60;;
20637;SDS011;10478;49.004;8.470;2022-10-19T10:58:36;12.30;;;6.47;;
20637;SDS011;10478;49.004;8.470;2022-10-19T11:01:06;10.20;;;6.28;;
20637;SDS011;10478;49.004;8.470;2022-10-19T11:03:40;15.20;;;6.30;;
20637;SDS011;10478;49.004;8.470;2022-10-19T11:06:11;8.73;;;5.55;;
20637;SDS011;10478;49.004;8.470;2022-10-19T11:11:25;11.30;;;5.95;;
20637;SDS011;10478;49.004;8.470;2022-10-19T11:16:30;8.48;;;5.30;;
20637;SDS011;10478;49.004;8.470;2022-10-19T11:21:56;9.75;;;6.03;;
20637;SDS011;10478;49.004;8.470;2022-10-19T11:32:09;10.32;;;6.55;;
20637;SDS011;10478;49.004;8.470;2022-10-19T11:38:27;12.18;;;5.05;;
20637;SDS011;10478;49.004;8.470;2022-10-19T11:41:03;5.90;;;4.03;;
20637;SDS011;10478;49.004;8.470;2022-10-19T11:43:37;5.88;;;3.88;;
20637;SDS011;10478;49.004;8.470;2022-10-19T11:46:23;6.82;;;3.70;;
20637;SDS011;10478;49.004;8.470;2022-10-19T11:51:27;6.70;;;3.60;;
20637;SDS011;10478;49.004;8.470;2022-10-19T11:56:35;4.40;;;3.03;;
20637;SDS011;10478;49.004;8.470;2022-10-19T12:01:59;4.43;;;3.28;;
20637;SDS011;10478;49.004;8.470;2022-10-19T12:07:42;4.93;;;2.95;;
20637;SDS011;10478;49.004;8.470;2022-10-19T12:10:31;4.70;;;2.53;;
20637;SDS011;10478;49.004;8.470;2022-10-19T12:13:02;8.23;;;2.80;;
20637;SDS011;10478;49.004;8.470;2022-10-19T12:18:05;4.40;;;2.35;;
20637;SDS011;10478;49.004;8.470;2022-10-19T12:20:36;3.03;;;2.20;;
20637;SDS011;10478;49.004;8.470;2022-10-19T12:23:09;3.45;;;2.47;;
20637;SDS011;10478;49.004;8.470;2022-10-19T12:25:57;3.30;;;2.30;;
20637;SDS011;10478;49.004;8.470;2022-10-19T12:28:28;7.15;;;3.85;;
20637;SDS011;10478;49.004;8.470;2022-10-19T12:30:55;4.57;;;1.95;;
20637;SDS011;10478;49.004;8.470;2022-10-19T12:41:54;2.60;;;1.83;;
20637;SDS011;10478;49.004;8.470;2022-10-19T12:47:37;2.45;;;1.70;;
20637;SDS011;10478;49.004;8.470;2022-10-19T12:50:02;3.50;;;1.98;;
20637;SDS011;10478;49.004;8.470;2022-10-19T12:52:46;2.53;;;1.45;;
20637;SDS011;10478;49.004;8.470;2022-10-19T12:55:23;2.13;;;1.90;;
20637;SDS011;10478;49.004;8.470;2022-10-19T12:58:04;2.83;;;1.80;;
20637;SDS011;10478;49.004;8.470;2022-10-19T13:00:37;2.78;;;1.55;;
20637;SDS011;10478;49.004;8.470;2022-10-19T13:03:04;2.63;;;1.73;;
20637;SDS011;10478;49.004;8.470;2022-10-19T13:05:32;4.35;;;1.92;;
20637;SDS011;10478;49.004;8.470;2022-10-19T13:08:00;1.65;;;1.35;;
20637;SDS011;10478;49.004;8.470;2022-10-19T13:10:26;2.60;;;1.70;;
20637;SDS011;10478;49.004;8.470;2022-10-19T13:12:52;3.53;;;1.30;;
20637;SDS011;10478;49.004;8.470;2022-10-19T13:17:59;2.67;;;1.65;;
20637;SDS011;10478;49.004;8.470;2022-10-19T13:38:25;3.13;;;1.42;;
20637;SDS011;10478;49.004;8.470;2022-10-19T13:43:17;3.43;;;1.80;;
20637;SDS011;10478;49.004;8.470;2022-10-19T13:45:54;2.30;;;1.38;;
20637;SDS011;10478;49.004;8.470;2022-10-19T13:48:48;1.55;;;1.10;;
20637;SDS011;10478;49.004;8.470;2022-10-19T13:59:27;2.60;;;1.80;;
20637;SDS011;10478;49.004;8.470;2022-10-19T14:08:02;3.28;;;1.58;;
20637;SDS011;10478;49.004;8.470;2022-10-19T14:10:30;2.55;;;1.23;;
20637;SDS011;10478;49.004;8.470;2022-10-19T14:12:56;4.00;;;1.73;;
20637;SDS011;10478;49.004;8.470;2022-10-19T14:15:23;2.55;;;1.63;;
20637;SDS011;10478;49.004;8.470;2022-10-19T14:17:52;3.00;;;1.40;;
20637;SDS011;10478;49.004;8.470;2022-10-19T14:20:36;2.15;;;1.50;;
20637;SDS011;10478;49.004;8.470;2022-10-19T14:25:51;2.17;;;1.45;;
20637;SDS011;10478;49.004;8.470;2022-10-19T14:28:19;2.38;;;1.70;;
20637;SDS011;10478;49.004;8.470;2022-10-19T14:30:45;4.10;;;1.80;;
20637;SDS011;10478;49.004;8.470;2022-10-19T14:33:18;2.58;;;1.70;;
20637;SDS011;10478;49.004;8.470;2022-10-19T14:35:45;2.53;;;1.73;;
20637;SDS011;10478;49.004;8.470;2022-10-19T14:38:15;3.88;;;1.33;;
20637;SDS011;10478;49.004;8.470;2022-10-19T14:40:43;3.60;;;1.55;;
20637;SDS011;10478;49.004;8.470;2022-10-19T14:43:28;2.00;;;1.45;;
20637;SDS011;10478;49.004;8.470;2022-10-19T14:48:39;2.15;;;1.55;;
20637;SDS011;10478;49.004;8.470;2022-10-19T14:51:14;4.47;;;2.67;;
20637;SDS011;10478;49.004;8.470;2022-10-19T14:54:05;2.92;;;1.95;;
20637;SDS011;10478;49.004;8.470;2022-10-19T14:56:46;2.80;;;1.30;;
20637;SDS011;10478;49.004;8.470;2022-10-19T14:59:44;2.80;;;1.42;;
20637;SDS011;10478;49.004;8.470;2022-10-19T15:04:56;3.40;;;1.80;;
20637;SDS011;10478;49.004;8.470;2022-10-19T15:07:44;3.10;;;2.15;;
20637;SDS011;10478;49.004;8.470;2022-10-19T15:10:20;4.32;;;2.20;;
20637;SDS011;10478;49.004;8.470;2022-10-19T15:12:48;2.97;;;1.90;;
20637;SDS011;10478;49.004;8.470;2022-10-19T15:15:17;3.47;;;2.20;;
20637;SDS011;10478;49.004;8.470;2022-10-19T15:20:28;4.22;;;2.97;;
20637;SDS011;10478;49.004;8.470;2022-10-19T15:22:59;4.95;;;2.05;;
20637;SDS011;10478;49.004;8.470;2022-10-19T15:25:29;3.10;;;2.50;;
20637;SDS011;10478;49.004;8.470;2022-10-19T15:28:19;2.92;;;2.10;;
20637;SDS011;10478;49.004;8.470;2022-10-19T15:30:58;4.28;;;2.47;;
20637;SDS011;10478;49.004;8.470;2022-10-19T15:33:36;3.42;;;2.50;;
20637;SDS011;10478;49.004;8.470;2022-10-19T15:36:06;5.45;;;2.58;;
20637;SDS011;10478;49.004;8.470;2022-10-19T15:38:33;3.03;;;1.95;;
20637;SDS011;10478;49.004;8.470;2022-10-19T15:40:59;7.38;;;2.47;;
20637;SDS011;10478;49.004;8.470;2022-10-19T15:46:01;2.83;;;2.17;;
20637;SDS011;10478;49.004;8.470;2022-10-19T15:48:28;4.05;;;2.33;;
20637;SDS011;10478;49.004;8.470;2022-10-19T15:50:59;6.38;;;2.53;;
20637;SDS011;10478;49.004;8.470;2022-10-19T15:53:24;3.75;;;2.25;;
20637;SDS011;10478;49.004;8.470;2022-10-19T15:55:50;3.53;;;2.40;;
20637;SDS011;10478;49.004;8.470;2022-10-19T15:58:15;3.75;;;2.50;;
20637;SDS011;10478;49.004;8.470;2022-10-19T16:00:41;5.93;;;2.22;;
20637;SDS011;10478;49.004;8.470;2022-10-19T16:03:07;3.97;;;2.40;;
20637;SDS011;10478;49.004;8.470;2022-10-19T16:05:36;4.32;;;2.45;;
20637;SDS011;10478;49.004;8.470;2022-10-19T16:08:02;3.33;;;2.40;;
20637;SDS011;10478;49.004;8.470;2022-10-19T16:10:27;5.65;;;2.30;;
20637;SDS011;10478;49.004;8.470;2022-10-19T16:12:52;3.47;;;1.98;;
20637;SDS011;10478;49.004;8.470;2022-10-19T16:15:20;4.10;;;2.15;;
20637;SDS011;10478;49.004;8.470;2022-10-19T16:17:53;3.97;;;2.17;;
20637;SDS011;10478;49.004;8.470;2022-10-19T16:20:20;5.22;;;2.10;;
20637;SDS011;10478;49.004;8.470;2022-10-19T16:22:45;3.83;;;2.08;;
20637;SDS011;10478;49.004;8.470;2022-10-19T16:25:11;4.45;;;2.17;;
20637;SDS011;10478;49.004;8.470;2022-10-19T16:27:36;3.17;;;2.00;;
20637;SDS011;10478;49.004;8.470;2022-10-19T16:30:02;5.03;;;2.20;;
20637;SDS011;10478;49.004;8.470;2022-10-19T16:32:28;4.60;;;2.25;;
20637;SDS011;10478;49.004;8.470;2022-10-19T16:34:53;2.95;;;2.05;;
20637;SDS011;10478;49.004;8.470;2022-10-19T16:37:19;2.58;;;1.88;;
20637;SDS011;10478;49.004;8.470;2022-10-19T16:39:44;2.95;;;1.67;;
20637;SDS011;10478;49.004;8.470;2022-10-19T16:42:09;5.13;;;2.63;;
20637;SDS011;10478;49.004;8.470;2022-10-19T16:44:35;3.05;;;1.83;;
20637;SDS011;10478;49.004;8.470;2022-10-19T16:47:00;3.90;;;1.92;;
20637;SDS011;10478;49.004;8.470;2022-10-19T16:49:25;2.30;;;1.70;;
20637;SDS011;10478;49.004;8.470;2022-10-19T16:51:51;3.72;;;2.13;;
20637;SDS011;10478;49.004;8.470;2022-10-19T16:54:16;3.33;;;2.08;;
20637;SDS011;10478;49.004;8.470;2022-10-19T16:56:43;3.47;;;2.60;;
20637;SDS011;10478;49.004;8.470;2022-10-19T16:59:10;4.05;;;1.92;;
20637;SDS011;10478;49.004;8.470;2022-10-19T17:01:37;4.80;;;3.05;;
20637;SDS011;10478;49.004;8.470;2022-10-19T17:04:03;2.55;;;2.05;;
20637;SDS011;10478;49.004;8.470;2022-10-19T17:06:28;8.48;;;2.22;;
20637;SDS011;10478;49.004;8.470;2022-10-19T17:08:54;3.10;;;2.03;;
20637;SDS011;10478;49.004;8.470;2022-10-19T17:11:22;10.38;;;2.15;;
20637;SDS011;10478;49.004;8.470;2022-10-19T17:13:51;5.53;;;2.30;;
20637;SDS011;10478;49.004;8.470;2022-10-19T17:16:18;3.50;;;2.65;;
20637;SDS011;10478;49.004;8.470;2022-10-19T17:18:44;3.42;;;2.45;;
20637;SDS011;10478;49.004;8.470;2022-10-19T17:21:11;4.55;;;3.15;;
20637;SDS011;10478;49.004;8.470;2022-10-19T17:23:38;3.97;;;2.50;;